CEFAS Endeavour — VQHF3 — position and weather

sailwx.info

Track history (hours):
 
Tides and Currents Weather Stations Pressure Air Temp Water Temp Dewpoint Dewpoint Depression Visibility Wind Speed Wind Dir Waves Ship Positions

Oceanographic research ship CEFAS Endeavour (UK)

Detailed information on ship capabilities available from University of Delaware's Ocean Information Center.

Last reported at 2016-Jul-29 10:33 UTC. Time now 2016-Jul-31 01:40 UTC.
Position N 52°16' E 001°46'.

Length 74 m; draft 5.4 m.

Type: Cargo ship. MMSI: 235005270.

Date/timePositionNaut miles runAvg speedWind from/ knotsBaromVisibWave heightAir tempDewpointWater temp
2016-Jul-29 10:33N 52°16' E 001°46'0 0.5
2016-Jul-29 09:33N 52°16' E 001°45'1 1.3
2016-Jul-29 08:33N 52°17' E 001°43'1 1.2
2016-Jul-29 07:33N 52°16' E 001°42'8 7.8
2016-Jul-29 06:33N 52°08' E 001°41'7 6.9
2016-Jul-29 05:33N 52°02' E 001°34'5 4.8
2016-Jul-29 04:33N 51°58' E 001°35'0 0.2
2016-Jul-29 03:33N 51°58' E 001°35'7 7.0
2016-Jul-29 02:33N 52°01' E 001°45'10 9.7
2016-Jul-29 01:34N 52°00' E 002°00'6 5.9
2016-Jul-29 00:33N 51°57' E 002°08'1 1.3
2016-Jul-28 23:34N 51°58' E 002°09'8 4.0
2016-Jul-28 21:34N 51°51' E 002°02'8 7.6
2016-Jul-28 20:34N 51°48' E 001°51'6 6.0
2016-Jul-28 19:33N 51°49' E 001°42'6 6.2
2016-Jul-28 18:34N 51°48' E 001°32'6 5.9
2016-Jul-28 17:33N 51°45' E 001°24'4 3.7
2016-Jul-28 16:34N 51°43' E 001°18'8 7.7
2016-Jul-28 15:33N 51°47' E 001°29'6 6.3
2016-Jul-28 14:33N 51°41' E 001°27'7 6.8
2016-Jul-28 13:32N 51°34' E 001°26'5 4.9
2016-Jul-28 12:33N 51°30' E 001°21'2 2.2
2016-Jul-28 11:33N 51°31' E 001°24'5 5.1
2016-Jul-28 10:33N 51°27' E 001°18'6 6.4
2016-Jul-28 09:33N 51°28' E 001°28'8 8.0
2016-Jul-28 08:34N 51°27' E 001°40'3 3.2
2016-Jul-28 07:33N 51°25' E 001°44'1010.3
2016-Jul-28 06:33N 51°15' E 001°38'5 4.7
2016-Jul-28 05:33N 51°18' E 001°45'2 1.9
2016-Jul-28 04:33N 51°20' E 001°45'3 3.5
2016-Jul-28 03:33N 51°16' E 001°43'1 1.3
2016-Jul-28 02:33N 51°15' E 001°42'5 4.8
2016-Jul-28 01:33N 51°20' E 001°44'4 3.9
2016-Jul-28 00:33N 51°24' E 001°45'4 3.7
2016-Jul-27 23:33N 51°27' E 001°47'3 3.0
2016-Jul-27 22:33N 51°30' E 001°48'4 3.7
2016-Jul-27 21:33N 51°33' E 001°52'3 3.3
2016-Jul-27 20:33N 51°35' E 001°56'3 2.9
2016-Jul-27 19:33N 51°36' E 001°60'3 3.0
2016-Jul-27 18:34N 51°38' E 002°04'4 3.9
2016-Jul-27 17:33N 51°40' E 002°09'5 4.5
2016-Jul-27 16:33N 51°40' E 002°16'9 8.9
2016-Jul-27 15:32N 51°34' E 002°27'6 6.4
2016-Jul-27 14:33N 51°35' E 002°37'5 4.2
2016-Jul-27 13:28N 51°36' E 002°45'3 1.6
2016-Jul-27 11:26N 51°33' E 002°47'6 3.2
2016-Jul-27 09:29N 51°29' E 002°39'2 2.4
2016-Jul-27 08:33N 51°30' E 002°35'6 5.7
2016-Jul-27 07:33N 51°26' E 002°42'4 4.2
2016-Jul-27 06:30N 51°22' E 002°40'3 2.9
2016-Jul-27 05:29N 51°19' E 002°38'0 0.4
2016-Jul-27 04:29N 51°19' E 002°39'3 2.9
2016-Jul-27 03:33N 51°22' E 002°37'7 6.7
2016-Jul-27 02:33N 51°21' E 002°26'6 5.8
2016-Jul-27 01:33N 51°18' E 002°18'5 5.4
2016-Jul-27 00:33N 51°15' E 002°11'5 5.3
2016-Jul-26 23:33N 51°12' E 002°03'5 5.5
2016-Jul-26 22:33N 51°10' E 001°56'5 5.4
2016-Jul-26 21:33N 51°07' E 001°48'6 5.7
2016-Jul-26 20:33N 51°03' E 001°42'6 5.8
2016-Jul-26 19:33N 50°58' E 001°37'6 5.9
2016-Jul-26 18:33N 50°53' E 001°33'6 5.3
2016-Jul-26 17:31N 50°47' E 001°34'1 0.9
2016-Jul-26 16:29N 50°48' E 001°34'4 2.3
2016-Jul-26 14:33N 50°53' E 001°34'2 2.2
2016-Jul-26 13:34N 50°54' E 001°31'3 3.2
2016-Jul-26 12:32N 50°52' E 001°28'6 5.6
2016-Jul-26 11:33N 50°46' E 001°27'6 1.5
2016-Jul-26 07:33N 50°41' E 001°31'8 0.5
2016-Jul-25 17:14N 50°34' E 001°25'12 2.2
2016-Jul-25 11:33N 50°24' E 001°14'54 1.6
2016-Jul-24 01:28N 49°45' E 000°15'0 0.0
2016-Jul-24 00:28N 49°45' E 000°15'0 0.3
2016-Jul-23 23:04N 49°45' E 000°14'0 0.2
2016-Jul-23 21:22N 49°45' E 000°14'1 0.2
2016-Jul-23 15:27N 49°46' E 000°13'7 7.6
2016-Jul-23 14:33N 49°51' E 000°07'3 3.2
2016-Jul-23 13:33N 49°48' E 000°05'1212.4
2016-Jul-23 12:33N 49°36' E 000°02'0 0.5
2016-Jul-23 11:33N 49°35' E 000°02'2 2.1
2016-Jul-23 10:33N 49°37' E 000°04'4 4.4
2016-Jul-23 09:33N 49°35' W 000°02'4 3.7
2016-Jul-23 08:33N 49°31' W 000°03'6 5.8
2016-Jul-23 07:33N 49°26' W 000°03'15 5.2
2016-Jul-23 04:33N 49°24' W 000°27'0 0.1
2016-Jul-23 03:33N 49°24' W 000°27'0 0.0
2016-Jul-23 02:33N 49°24' W 000°27'0 0.1
2016-Jul-23 01:33N 49°24' W 000°27'0 0.0
2016-Jul-23 00:33N 49°24' W 000°27'0 0.0
2016-Jul-22 23:33N 49°24' W 000°27'0 0.0
2016-Jul-22 22:33N 49°24' W 000°27'0 0.0
2016-Jul-22 21:33N 49°24' W 000°27'0 0.0
2016-Jul-22 20:33N 49°24' W 000°27'8 8.2
2016-Jul-22 19:33N 49°24' W 000°40'4 4.0
2016-Jul-22 18:33N 49°24' W 000°46'6 6.4
2016-Jul-22 17:33N 49°25' W 000°36'4 3.7
2016-Jul-22 16:33N 49°28' W 000°38'1211.9
2016-Jul-22 15:33N 49°40' W 000°39'6 5.8
2016-Jul-22 14:33N 49°46' W 000°43'9 9.3
2016-Jul-22 13:33N 49°41' W 000°55'8 8.4
2016-Jul-22 12:33N 49°34' W 001°03'4 4.4
2016-Jul-22 11:33N 49°34' W 001°10'2 1.8
2016-Jul-22 10:33N 49°33' W 001°08'1111.0
2016-Jul-22 09:33N 49°43' W 001°05'8 8.5
2016-Jul-22 08:33N 49°52' W 001°04'4 4.0
2016-Jul-22 07:33N 49°56' W 001°06'18 9.2
2016-Jul-22 05:34N 50°10' W 001°24'2 1.4
2016-Jul-22 04:07N 50°10' W 001°27'1 2.3
2016-Jul-22 03:29N 50°10' W 001°25'2 2.3
2016-Jul-22 02:32N 50°09' W 001°22'2 2.4
2016-Jul-22 01:32N 50°10' W 001°18'1 0.6
2016-Jul-22 00:25N 50°10' W 001°17'2 1.5
2016-Jul-21 23:21N 50°10' W 001°20'1 0.8
2016-Jul-21 22:33N 50°10' W 001°19'3 2.7
2016-Jul-21 21:33N 50°12' W 001°16'2 2.3
2016-Jul-21 20:34N 50°13' W 001°12'8 7.7
2016-Jul-21 19:34N 50°21' W 001°10'2 1.6
2016-Jul-21 18:33N 50°22' W 001°09'1312.7
2016-Jul-21 17:30N 50°19' W 001°30'28 3.5
2016-Jul-21 09:33N 50°35' W 000°54'8 8.3
2016-Jul-21 08:33N 50°43' W 000°57'0 0.4
2016-Jul-21 07:33N 50°43' W 000°56'1 0.9
2016-Jul-21 06:33N 50°43' W 000°57'5 5.3
2016-Jul-21 05:33N 50°39' W 000°52'1 1.1
2016-Jul-21 04:33N 50°38' W 000°51'1 1.0
2016-Jul-21 03:33N 50°38' W 000°49'1 1.2
2016-Jul-21 02:33N 50°38' W 000°47'2 2.3
2016-Jul-21 01:31N 50°40' W 000°50'0 0.4
2016-Jul-21 00:31N 50°39' W 000°50'0 0.2
2016-Jul-20 23:31N 50°39' W 000°49'0 0.0
2016-Jul-20 22:28N 50°39' W 000°49'0 0.0
2016-Jul-20 21:31N 50°39' W 000°49'0 0.0
2016-Jul-20 20:28N 50°39' W 000°49'0 0.0
2016-Jul-20 19:31N 50°39' W 000°49'2 2.5
2016-Jul-20 18:33N 50°38' W 000°46'5 5.3
2016-Jul-20 17:33N 50°34' W 000°40'2 1.8
2016-Jul-20 16:31N 50°33' W 000°42'9 8.7
2016-Jul-20 15:28N 50°28' W 000°30'3 2.3
2016-Jul-20 14:22N 50°30' W 000°33'5 6.4
2016-Jul-20 13:33N 50°35' W 000°33'5 4.7
2016-Jul-20 12:32N 50°40' W 000°33'2 1.6
2016-Jul-20 11:33N 50°41' W 000°35'9 8.7
2016-Jul-20 10:34N 50°43' W 000°22'4 3.5
2016-Jul-20 09:34N 50°45' W 000°17'3 3.0
2016-Jul-20 08:33N 50°47' W 000°14'3 2.8
2016-Jul-20 07:33N 50°47' W 000°10'1 1.4
2016-Jul-20 06:34N 50°47' W 000°12'4 4.1
2016-Jul-20 05:33N 50°45' W 000°06'2 2.3
2016-Jul-20 04:32N 50°46' W 000°02'0 0.0
2016-Jul-20 03:26N 50°46' W 000°03'0 0.0
2016-Jul-20 02:29N 50°46' W 000°03'0 0.0
2016-Jul-20 01:32N 50°46' W 000°03'0 0.0
2016-Jul-20 00:32N 50°46' W 000°03'0 0.0
2016-Jul-19 23:29N 50°46' W 000°03'0 0.0
2016-Jul-19 22:29N 50°46' W 000°03'0 0.1
2016-Jul-19 21:20N 50°46' W 000°02'0 0.0
2016-Jul-19 20:29N 50°46' W 000°02'0 0.1
2016-Jul-19 19:32N 50°45' W 000°02'0 0.0
2016-Jul-19 18:32N 50°46' W 000°02'0 0.0
2016-Jul-19 17:32N 50°46' W 000°03'1 1.5
2016-Jul-19 16:33N 50°45' W 000°00'2 1.7
2016-Jul-19 15:33N 50°45' E 000°02'0 0.4
2016-Jul-19 14:33N 50°45' E 000°02'1 0.8
2016-Jul-19 13:33N 50°45' E 000°01'3 3.4
2016-Jul-19 12:33N 50°43' W 000°02'5 4.7
2016-Jul-19 11:33N 50°40' E 000°03'  
Track history (hours):
 
Tides and Currents Weather Stations Pressure Air Temp Water Temp Dewpoint Dewpoint Depression Visibility Wind Speed Wind Dir Waves Ship Positions

Oceanographic research ship CEFAS Endeavour (UK)

Detailed information on ship capabilities available from University of Delaware's Ocean Information Center.

Last reported at 2016-Jul-29 10:33 UTC. Time now 2016-Jul-31 01:40 UTC.
Position N 52°16' E 001°46'.

Length 74 m; draft 5.4 m.

Type: Cargo ship. MMSI: 235005270.

Date/timePositionNaut miles runAvg speedWind from/ knotsBaromVisibWave heightAir tempDewpointWater temp
2016-Jul-29 10:33N 52°16' E 001°46'0 0.5
2016-Jul-29 09:33N 52°16' E 001°45'1 1.3
2016-Jul-29 08:33N 52°17' E 001°43'1 1.2
2016-Jul-29 07:33N 52°16' E 001°42'8 7.8
2016-Jul-29 06:33N 52°08' E 001°41'7 6.9
2016-Jul-29 05:33N 52°02' E 001°34'5 4.8
2016-Jul-29 04:33N 51°58' E 001°35'0 0.2
2016-Jul-29 03:33N 51°58' E 001°35'7 7.0
2016-Jul-29 02:33N 52°01' E 001°45'10 9.7
2016-Jul-29 01:34N 52°00' E 002°00'6 5.9
2016-Jul-29 00:33N 51°57' E 002°08'1 1.3
2016-Jul-28 23:34N 51°58' E 002°09'8 4.0
2016-Jul-28 21:34N 51°51' E 002°02'8 7.6
2016-Jul-28 20:34N 51°48' E 001°51'6 6.0
2016-Jul-28 19:33N 51°49' E 001°42'6 6.2
2016-Jul-28 18:34N 51°48' E 001°32'6 5.9
2016-Jul-28 17:33N 51°45' E 001°24'4 3.7
2016-Jul-28 16:34N 51°43' E 001°18'8 7.7
2016-Jul-28 15:33N 51°47' E 001°29'6 6.3
2016-Jul-28 14:33N 51°41' E 001°27'7 6.8
2016-Jul-28 13:32N 51°34' E 001°26'5 4.9
2016-Jul-28 12:33N 51°30' E 001°21'2 2.2
2016-Jul-28 11:33N 51°31' E 001°24'5 5.1
2016-Jul-28 10:33N 51°27' E 001°18'6 6.4
2016-Jul-28 09:33N 51°28' E 001°28'8 8.0
2016-Jul-28 08:34N 51°27' E 001°40'3 3.2
2016-Jul-28 07:33N 51°25' E 001°44'1010.3
2016-Jul-28 06:33N 51°15' E 001°38'5 4.7
2016-Jul-28 05:33N 51°18' E 001°45'2 1.9
2016-Jul-28 04:33N 51°20' E 001°45'3 3.5
2016-Jul-28 03:33N 51°16' E 001°43'1 1.3
2016-Jul-28 02:33N 51°15' E 001°42'5 4.8
2016-Jul-28 01:33N 51°20' E 001°44'4 3.9
2016-Jul-28 00:33N 51°24' E 001°45'4 3.7
2016-Jul-27 23:33N 51°27' E 001°47'3 3.0
2016-Jul-27 22:33N 51°30' E 001°48'4 3.7
2016-Jul-27 21:33N 51°33' E 001°52'3 3.3
2016-Jul-27 20:33N 51°35' E 001°56'3 2.9
2016-Jul-27 19:33N 51°36' E 001°60'3 3.0
2016-Jul-27 18:34N 51°38' E 002°04'4 3.9
2016-Jul-27 17:33N 51°40' E 002°09'5 4.5
2016-Jul-27 16:33N 51°40' E 002°16'9 8.9
2016-Jul-27 15:32N 51°34' E 002°27'6 6.4
2016-Jul-27 14:33N 51°35' E 002°37'5 4.2
2016-Jul-27 13:28N 51°36' E 002°45'3 1.6
2016-Jul-27 11:26N 51°33' E 002°47'6 3.2
2016-Jul-27 09:29N 51°29' E 002°39'2 2.4
2016-Jul-27 08:33N 51°30' E 002°35'6 5.7
2016-Jul-27 07:33N 51°26' E 002°42'4 4.2
2016-Jul-27 06:30N 51°22' E 002°40'3 2.9
2016-Jul-27 05:29N 51°19' E 002°38'0 0.4
2016-Jul-27 04:29N 51°19' E 002°39'3 2.9
2016-Jul-27 03:33N 51°22' E 002°37'7 6.7
2016-Jul-27 02:33N 51°21' E 002°26'6 5.8
2016-Jul-27 01:33N 51°18' E 002°18'5 5.4
2016-Jul-27 00:33N 51°15' E 002°11'5 5.3
2016-Jul-26 23:33N 51°12' E 002°03'5 5.5
2016-Jul-26 22:33N 51°10' E 001°56'5 5.4
2016-Jul-26 21:33N 51°07' E 001°48'6 5.7
2016-Jul-26 20:33N 51°03' E 001°42'6 5.8
2016-Jul-26 19:33N 50°58' E 001°37'6 5.9
2016-Jul-26 18:33N 50°53' E 001°33'6 5.3
2016-Jul-26 17:31N 50°47' E 001°34'1 0.9
2016-Jul-26 16:29N 50°48' E 001°34'4 2.3
2016-Jul-26 14:33N 50°53' E 001°34'2 2.2
2016-Jul-26 13:34N 50°54' E 001°31'3 3.2
2016-Jul-26 12:32N 50°52' E 001°28'6 5.6
2016-Jul-26 11:33N 50°46' E 001°27'6 1.5
2016-Jul-26 07:33N 50°41' E 001°31'8 0.5
2016-Jul-25 17:14N 50°34' E 001°25'12 2.2
2016-Jul-25 11:33N 50°24' E 001°14'54 1.6
2016-Jul-24 01:28N 49°45' E 000°15'0 0.0
2016-Jul-24 00:28N 49°45' E 000°15'0 0.3
2016-Jul-23 23:04N 49°45' E 000°14'0 0.2
2016-Jul-23 21:22N 49°45' E 000°14'1 0.2
2016-Jul-23 15:27N 49°46' E 000°13'7 7.6
2016-Jul-23 14:33N 49°51' E 000°07'3 3.2
2016-Jul-23 13:33N 49°48' E 000°05'1212.4
2016-Jul-23 12:33N 49°36' E 000°02'0 0.5
2016-Jul-23 11:33N 49°35' E 000°02'2 2.1
2016-Jul-23 10:33N 49°37' E 000°04'4 4.4
2016-Jul-23 09:33N 49°35' W 000°02'4 3.7
2016-Jul-23 08:33N 49°31' W 000°03'6 5.8
2016-Jul-23 07:33N 49°26' W 000°03'15 5.2
2016-Jul-23 04:33N 49°24' W 000°27'0 0.1
2016-Jul-23 03:33N 49°24' W 000°27'0 0.0
2016-Jul-23 02:33N 49°24' W 000°27'0 0.1
2016-Jul-23 01:33N 49°24' W 000°27'0 0.0
2016-Jul-23 00:33N 49°24' W 000°27'0 0.0
2016-Jul-22 23:33N 49°24' W 000°27'0 0.0
2016-Jul-22 22:33N 49°24' W 000°27'0 0.0
2016-Jul-22 21:33N 49°24' W 000°27'0 0.0
2016-Jul-22 20:33N 49°24' W 000°27'8 8.2
2016-Jul-22 19:33N 49°24' W 000°40'4 4.0
2016-Jul-22 18:33N 49°24' W 000°46'6 6.4
2016-Jul-22 17:33N 49°25' W 000°36'4 3.7
2016-Jul-22 16:33N 49°28' W 000°38'1211.9
2016-Jul-22 15:33N 49°40' W 000°39'6 5.8
2016-Jul-22 14:33N 49°46' W 000°43'9 9.3
2016-Jul-22 13:33N 49°41' W 000°55'8 8.4
2016-Jul-22 12:33N 49°34' W 001°03'4 4.4
2016-Jul-22 11:33N 49°34' W 001°10'2 1.8
2016-Jul-22 10:33N 49°33' W 001°08'1111.0
2016-Jul-22 09:33N 49°43' W 001°05'8 8.5
2016-Jul-22 08:33N 49°52' W 001°04'4 4.0
2016-Jul-22 07:33N 49°56' W 001°06'18 9.2
2016-Jul-22 05:34N 50°10' W 001°24'2 1.4
2016-Jul-22 04:07N 50°10' W 001°27'1 2.3
2016-Jul-22 03:29N 50°10' W 001°25'2 2.3
2016-Jul-22 02:32N 50°09' W 001°22'2 2.4
2016-Jul-22 01:32N 50°10' W 001°18'1 0.6
2016-Jul-22 00:25N 50°10' W 001°17'2 1.5
2016-Jul-21 23:21N 50°10' W 001°20'1 0.8
2016-Jul-21 22:33N 50°10' W 001°19'3 2.7
2016-Jul-21 21:33N 50°12' W 001°16'2 2.3
2016-Jul-21 20:34N 50°13' W 001°12'8 7.7
2016-Jul-21 19:34N 50°21' W 001°10'2 1.6
2016-Jul-21 18:33N 50°22' W 001°09'1312.7
2016-Jul-21 17:30N 50°19' W 001°30'28 3.5
2016-Jul-21 09:33N 50°35' W 000°54'8 8.3
2016-Jul-21 08:33N 50°43' W 000°57'0 0.4
2016-Jul-21 07:33N 50°43' W 000°56'1 0.9
2016-Jul-21 06:33N 50°43' W 000°57'5 5.3
2016-Jul-21 05:33N 50°39' W 000°52'1 1.1
2016-Jul-21 04:33N 50°38' W 000°51'1 1.0
2016-Jul-21 03:33N 50°38' W 000°49'1 1.2
2016-Jul-21 02:33N 50°38' W 000°47'2 2.3
2016-Jul-21 01:31N 50°40' W 000°50'0 0.4
2016-Jul-21 00:31N 50°39' W 000°50'0 0.2
2016-Jul-20 23:31N 50°39' W 000°49'0 0.0
2016-Jul-20 22:28N 50°39' W 000°49'0 0.0
2016-Jul-20 21:31N 50°39' W 000°49'0 0.0
2016-Jul-20 20:28N 50°39' W 000°49'0 0.0
2016-Jul-20 19:31N 50°39' W 000°49'2 2.5
2016-Jul-20 18:33N 50°38' W 000°46'5 5.3
2016-Jul-20 17:33N 50°34' W 000°40'2 1.8
2016-Jul-20 16:31N 50°33' W 000°42'9 8.7
2016-Jul-20 15:28N 50°28' W 000°30'3 2.3
2016-Jul-20 14:22N 50°30' W 000°33'5 6.4
2016-Jul-20 13:33N 50°35' W 000°33'5 4.7
2016-Jul-20 12:32N 50°40' W 000°33'2 1.6
2016-Jul-20 11:33N 50°41' W 000°35'9 8.7
2016-Jul-20 10:34N 50°43' W 000°22'4 3.5
2016-Jul-20 09:34N 50°45' W 000°17'3 3.0
2016-Jul-20 08:33N 50°47' W 000°14'3 2.8
2016-Jul-20 07:33N 50°47' W 000°10'1 1.4
2016-Jul-20 06:34N 50°47' W 000°12'4 4.1
2016-Jul-20 05:33N 50°45' W 000°06'2 2.3
2016-Jul-20 04:32N 50°46' W 000°02'0 0.0
2016-Jul-20 03:26N 50°46' W 000°03'0 0.0
2016-Jul-20 02:29N 50°46' W 000°03'0 0.0
2016-Jul-20 01:32N 50°46' W 000°03'0 0.0
2016-Jul-20 00:32N 50°46' W 000°03'0 0.0
2016-Jul-19 23:29N 50°46' W 000°03'0 0.0
2016-Jul-19 22:29N 50°46' W 000°03'0 0.1
2016-Jul-19 21:20N 50°46' W 000°02'0 0.0
2016-Jul-19 20:29N 50°46' W 000°02'0 0.1
2016-Jul-19 19:32N 50°45' W 000°02'0 0.0
2016-Jul-19 18:32N 50°46' W 000°02'0 0.0
2016-Jul-19 17:32N 50°46' W 000°03'1 1.5
2016-Jul-19 16:33N 50°45' W 000°00'2 1.7
2016-Jul-19 15:33N 50°45' E 000°02'0 0.4
2016-Jul-19 14:33N 50°45' E 000°02'1 0.8
2016-Jul-19 13:33N 50°45' E 000°01'3 3.4
2016-Jul-19 12:33N 50°43' W 000°02'5 4.7
2016-Jul-19 11:33N 50°40' E 000°03'  

Dump ship's entire track history